Latest Weather Observations for Busselton Jetty

IDW60801

Issued at 8:32 pm WST Sunday 2 August 2015 (issued every 30 minutes, with the page automatically refreshed every 10 minutes)

About weather observations | Map of weather stations | Latest weather observations for WA | Other Formats
Station Details ID: 009937 Name: BUSSELTON JETTY Lat: -33.63 Lon: 115.34 Height: 3.0 m
Data from the previous 72 hours. | See also: Recent months at Busselton Jetty
Date/Time
WST
Temp
°C
App
Temp
°C
Dew
Point
Rel
Hum
%
Delta-T
°C
Wind Press
QNH
hPa
Press
MSL
hPa
Rain
since 9 am
mm
Dir
 
Spd
km/h
Gust
km/h
Spd
kts
Gust
kts
02/08:30pm - - - - - S 17 19 9 10 - - -
02/08:00pm - - - - - S 19 24 10 13 - - -
02/07:30pm - - - - - SSW 20 26 11 14 - - -
02/07:00pm - - - - - SSW 19 22 10 12 - - -
02/06:30pm - - - - - SSW 15 20 8 11 - - -
02/06:00pm - - - - - SW 9 13 5 7 - - -
02/05:30pm - - - - - W 11 13 6 7 - - -
02/05:00pm - - - - - WNW 13 15 7 8 - - -
02/04:30pm - - - - - WNW 11 13 6 7 - - -
02/04:00pm - - - - - NW 11 13 6 7 - - -
02/03:30pm - - - - - NW 9 11 5 6 - - -
02/03:00pm - - - - - NNW 13 15 7 8 - - -
02/02:30pm - - - - - N 6 7 3 4 - - -
02/02:00pm - - - - - N 2 9 1 5 - - -
02/01:30pm - - - - - SSE 11 15 6 8 - - -
02/01:00pm - - - - - SE 6 7 3 4 - - -
02/12:30pm - - - - - SE 13 15 7 8 - - -
02/12:00pm - - - - - NE 7 9 4 5 - - -
02/11:30am - - - - - NNE 9 9 5 5 - - -
02/11:00am - - - - - NE 7 9 4 5 - - -
02/10:30am - - - - - E 7 9 4 5 - - -
02/10:00am - - - - - E 9 9 5 5 - - -
02/09:30am - - - - - SSE 9 13 5 7 - - -
02/09:00am - - - - - SE 11 13 6 7 - - -
02/08:30am - - - - - SSE 9 11 5 6 - - -
02/08:00am - - - - - SSE 9 11 5 6 - - -
02/07:30am - - - - - S 9 11 5 6 - - -
02/07:00am - - - - - S 7 9 4 5 - - -
02/06:30am - - - - - SSE 13 15 7 8 - - -
02/06:00am - - - - - S 11 15 6 8 - - -
02/05:30am - - - - - S 13 19 7 10 - - -
02/05:00am - - - - - S 13 15 7 8 - - -
02/04:30am - - - - - SSW 13 17 7 9 - - -
02/04:00am - - - - - SSW 15 17 8 9 - - -
02/03:30am - - - - - SSW 15 19 8 10 - - -
02/03:00am - - - - - SW 4 6 2 3 - - -
02/02:30am - - - - - S 7 9 4 5 - - -
02/02:00am - - - - - S 9 13 5 7 - - -
02/01:30am - - - - - SSW 11 17 6 9 - - -
02/01:00am - - - - - S 9 11 5 6 - - -
02/12:30am - - - - - SSE 11 15 6 8 - - -
02/12:00am - - - - - S 13 15 7 8 - - -
 
Date/Time
WST
Temp
°C
App
Temp
°C
Dew
Point
Rel
Hum
%
Delta-T
°C
Wind Press
QNH
hPa
Press
MSL
hPa
Rain
since 9 am
mm
Dir
 
Spd
km/h
Gust
km/h
Spd
kts
Gust
kts
01/11:30pm - - - - - S 15 19 8 10 - - -
01/11:00pm - - - - - S 13 19 7 10 - - -
01/10:30pm - - - - - S 15 19 8 10 - - -
01/10:00pm - - - - - S 13 19 7 10 - - -
01/09:30pm - - - - - S 13 19 7 10 - - -
01/09:00pm - - - - - S 15 19 8 10 - - -
01/08:30pm - - - - - SSW 15 19 8 10 - - -
01/08:00pm - - - - - SSW 13 17 7 9 - - -
01/07:30pm - - - - - S 13 17 7 9 - - -
01/07:00pm - - - - - S 13 15 7 8 - - -
01/06:30pm - - - - - SSE 13 15 7 8 - - -
01/06:00pm - - - - - SSE 17 20 9 11 - - -
01/05:30pm - - - - - SSE 24 28 13 15 - - -
01/05:00pm - - - - - SSE 26 32 14 17 - - -
01/04:30pm - - - - - SSE 24 32 13 17 - - -
01/04:00pm - - - - - S 33 39 18 21 - - -
01/03:30pm - - - - - SSE 32 37 17 20 - - -
01/03:00pm - - - - - S 28 35 15 19 - - -
01/02:30pm - - - - - S 28 35 15 19 - - -
01/02:00pm - - - - - SSW 28 43 15 23 - - -
01/01:30pm - - - - - S 28 35 15 19 - - -
01/01:00pm - - - - - SSE 32 41 17 22 - - -
01/12:30pm - - - - - S 28 35 15 19 - - -
01/12:00pm - - - - - SSE 32 43 17 23 - - -
01/11:30am - - - - - SSE 30 41 16 22 - - -
01/11:00am - - - - - S 30 41 16 22 - - -
01/10:30am - - - - - S 33 43 18 23 - - -
01/10:00am - - - - - SSE 28 33 15 18 - - -
01/09:30am - - - - - SSE 30 39 16 21 - - -
01/09:00am - - - - - S 22 28 12 15 - - -
01/08:30am - - - - - S 22 30 12 16 - - -
01/08:00am - - - - - S 22 30 12 16 - - -
01/07:30am - - - - - S 24 30 13 16 - - -
01/07:00am - - - - - S 22 30 12 16 - - -
01/06:30am - - - - - S 26 30 14 16 - - -
01/06:00am - - - - - S 26 35 14 19 - - -
01/05:30am - - - - - S 26 32 14 17 - - -
01/05:00am - - - - - S 33 41 18 22 - - -
01/04:30am - - - - - S 33 41 18 22 - - -
01/04:00am - - - - - S 32 41 17 22 - - -
01/03:30am - - - - - S 30 37 16 20 - - -
01/03:00am - - - - - S 33 44 18 24 - - -
01/02:30am - - - - - SSE 35 41 19 22 - - -
01/02:00am - - - - - S 32 43 17 23 - - -
01/01:30am - - - - - S 24 32 13 17 - - -
01/01:00am - - - - - S 26 33 14 18 - - -
01/12:30am - - - - - S 22 32 12 17 - - -
01/12:00am - - - - - SSE 32 37 17 20 - - -
 
Date/Time
WST
Temp
°C
App
Temp
°C
Dew
Point
Rel
Hum
%
Delta-T
°C
Wind Press
QNH
hPa
Press
MSL
hPa
Rain
since 9 am
mm
Dir
 
Spd
km/h
Gust
km/h
Spd
kts
Gust
kts
31/11:30pm - - - - - SSE 30 39 16 21 - - -
31/11:00pm - - - - - SSE 32 39 17 21 - - -
31/10:30pm - - - - - S 28 35 15 19 - - -
31/10:00pm - - - - - SSE 37 52 20 28 - - -
31/09:30pm - - - - - SSE 35 48 19 26 - - -
31/09:00pm - - - - - S 35 54 19 29 - - -
31/08:54pm - - - - - S 35 54 19 29 - - -
31/08:30pm - - - - - SSE 39 50 21 27 - - -
31/08:00pm - - - - - SSE 39 52 21 28 - - -
31/07:30pm - - - - - SSE 39 50 21 27 - - -
31/07:14pm - - - - - SSE 43 61 23 33 - - -
31/07:00pm - - - - - SSE 43 59 23 32 - - -
31/06:30pm - - - - - SSE 43 54 23 29 - - -
31/06:00pm - - - - - SSE 44 54 24 29 - - -
31/05:46pm - - - - - SSE 44 63 24 34 - - -
31/05:30pm - - - - - S 44 59 24 32 - - -
31/05:19pm - - - - - S 39 57 21 31 - - -
31/05:00pm - - - - - S 37 52 20 28 - - -
31/04:30pm - - - - - SSE 43 56 23 30 - - -
31/04:00pm - - - - - S 39 50 21 27 - - -
31/03:30pm - - - - - S 33 44 18 24 - - -
31/03:00pm - - - - - SSE 32 39 17 21 - - -
31/02:30pm - - - - - SSE 35 39 19 21 - - -
31/02:00pm - - - - - SSE 28 35 15 19 - - -
31/01:30pm - - - - - SSE 32 37 17 20 - - -
31/01:00pm - - - - - SE 26 32 14 17 - - -
31/12:30pm - - - - - S 26 32 14 17 - - -
31/12:00pm - - - - - NE 13 15 7 8 - - -
31/11:30am - - - - - NE 17 17 9 9 - - -
31/11:00am - - - - - NE 15 17 8 9 - - -
31/10:30am - - - - - ENE 13 15 7 8 - - -
31/10:00am - - - - - NE 13 15 7 8 - - -
31/09:30am - - - - - ENE 17 19 9 10 - - -
31/09:00am - - - - - E 15 15 8 8 - - -
31/08:30am - - - - - NE 15 17 8 9 - - -
31/08:00am - - - - - ENE 19 20 10 11 - - -
31/07:30am - - - - - ENE 17 20 9 11 - - -
31/07:00am - - - - - NE 15 17 8 9 - - -
31/06:30am - - - - - NE 15 17 8 9 - - -
31/06:00am - - - - - SE 13 15 7 8 - - -
31/05:30am - - - - - NE 9 11 5 6 - - -
31/05:00am - - - - - NE 13 15 7 8 - - -
31/04:30am - - - - - NNE 15 19 8 10 - - -
31/04:00am - - - - - NNE 17 22 9 12 - - -
31/03:30am - - - - - NNE 19 20 10 11 - - -
31/03:00am - - - - - N 15 17 8 9 - - -
31/02:30am - - - - - NW 15 20 8 11 - - -
31/02:00am - - - - - N 19 26 10 14 - - -
31/01:30am - - - - - N 35 41 19 22 - - -
31/01:00am - - - - - NNW 35 48 19 26 - - -
31/12:52am - - - - - NNW 30 48 16 26 - - -
31/12:30am - - - - - NW 20 32 11 17 - - -
31/12:12am - - - - - NW 28 48 15 26 - - -
31/12:00am - - - - - WNW 24 35 13 19 - - -
 
Date/Time
WST
Temp
°C
App
Temp
°C
Dew
Point
Rel
Hum
%
Delta-T
°C
Wind Press
QNH
hPa
Press
MSL
hPa
Rain
since 9 am
mm
Dir
 
Spd
km/h
Gust
km/h
Spd
kts
Gust
kts
30/11:30pm - - - - - NW 28 37 15 20 - - -
30/11:00pm - - - - - N 26 39 14 21 - - -
30/10:30pm - - - - - NNW 33 44 18 24 - - -
30/10:00pm - - - - - N 35 43 19 23 - - -
30/09:55pm - - - - - N 39 52 21 28 - - -
30/09:30pm - - - - - NNE 41 54 22 29 - - -
30/09:00pm - - - - - N 32 39 17 21 - - -

Other Formats:

Comma delimited format used in spreadsheet applications
http://www.bom.gov.au/fwo/IDW60801/IDW60801.95602.axf

JavaScript Object Notation format (JSON) in row-major order
http://www.bom.gov.au/fwo/IDW60801/IDW60801.95602.json